sensor_id;sensor_type;location;lat;lon;timestamp;P1;P2;P0
27143;PMS1003;14672;50.250;8.312;2022-07-11T00:02:14;24.75;22.75;12.00
27143;PMS1003;14672;50.250;8.312;2022-07-11T00:04:41;27.75;26.00;11.50
27143;PMS1003;14672;50.250;8.312;2022-07-11T00:07:07;23.50;20.75;10.25
27143;PMS1003;14672;50.250;8.312;2022-07-11T00:09:34;37.75;35.50;20.75
27143;PMS1003;14672;50.250;8.312;2022-07-11T00:12:00;18.50;18.00;10.50
27143;PMS1003;14672;50.250;8.312;2022-07-11T00:14:28;23.75;22.25;9.25
27143;PMS1003;14672;50.250;8.312;2022-07-11T00:16:53;22.00;20.33;10.33
27143;PMS1003;14672;50.250;8.312;2022-07-11T00:19:20;21.50;19.50;10.00
27143;PMS1003;14672;50.250;8.312;2022-07-11T00:21:47;20.00;19.00;9.75
27143;PMS1003;14672;50.250;8.312;2022-07-11T00:24:14;23.50;21.50;11.00
27143;PMS1003;14672;50.250;8.312;2022-07-11T00:26:42;17.50;16.25;9.50
27143;PMS1003;14672;50.250;8.312;2022-07-11T00:29:09;17.00;17.00;10.00
27143;PMS1003;14672;50.250;8.312;2022-07-11T00:31:35;18.75;18.75;11.00
27143;PMS1003;14672;50.250;8.312;2022-07-11T00:34:01;18.33;18.33;9.00
27143;PMS1003;14672;50.250;8.312;2022-07-11T00:36:27;22.00;20.00;14.00
27143;PMS1003;14672;50.250;8.312;2022-07-11T00:38:53;15.75;14.50;7.75
27143;PMS1003;14672;50.250;8.312;2022-07-11T00:41:19;18.67;18.33;10.33
27143;PMS1003;14672;50.250;8.312;2022-07-11T00:43:50;23.33;21.00;10.33
27143;PMS1003;14672;50.250;8.312;2022-07-11T00:46:21;16.00;16.00;8.00
27143;PMS1003;14672;50.250;8.312;2022-07-11T00:48:50;16.00;16.00;8.00
27143;PMS1003;14672;50.250;8.312;2022-07-11T00:51:19;15.75;15.75;8.25
27143;PMS1003;14672;50.250;8.312;2022-07-11T00:53:50;18.75;17.75;8.50
27143;PMS1003;14672;50.250;8.312;2022-07-11T00:56:22;24.00;23.00;9.25
27143;PMS1003;14672;50.250;8.312;2022-07-11T00:58:51;18.25;18.00;8.00
27143;PMS1003;14672;50.250;8.312;2022-07-11T01:01:19;19.25;19.00;8.00
27143;PMS1003;14672;50.250;8.312;2022-07-11T01:03:46;18.50;18.00;11.00
27143;PMS1003;14672;50.250;8.312;2022-07-11T01:06:12;17.00;17.00;8.25
27143;PMS1003;14672;50.250;8.312;2022-07-11T01:08:38;19.25;18.25;8.00
27143;PMS1003;14672;50.250;8.312;2022-07-11T01:11:05;21.00;21.00;12.50
27143;PMS1003;14672;50.250;8.312;2022-07-11T01:13:37;18.50;18.25;8.00
27143;PMS1003;14672;50.250;8.312;2022-07-11T01:16:16;17.50;17.00;7.00
27143;PMS1003;14672;50.250;8.312;2022-07-11T01:18:53;17.50;17.50;8.25
27143;PMS1003;14672;50.250;8.312;2022-07-11T01:21:27;21.00;19.50;10.00
27143;PMS1003;14672;50.250;8.312;2022-07-11T01:24:05;16.25;13.50;7.00
27143;PMS1003;14672;50.250;8.312;2022-07-11T01:26:33;15.25;15.25;7.50
27143;PMS1003;14672;50.250;8.312;2022-07-11T01:29:09;17.00;17.00;9.00
27143;PMS1003;14672;50.250;8.312;2022-07-11T01:31:38;17.75;17.50;9.00
27143;PMS1003;14672;50.250;8.312;2022-07-11T01:34:08;20.00;16.75;8.00
27143;PMS1003;14672;50.250;8.312;2022-07-11T01:36:35;16.50;15.00;8.00
27143;PMS1003;14672;50.250;8.312;2022-07-11T01:39:01;22.75;21.75;11.00
27143;PMS1003;14672;50.250;8.312;2022-07-11T01:41:28;18.25;17.50;9.00
27143;PMS1003;14672;50.250;8.312;2022-07-11T01:43:53;22.33;19.00;8.00
27143;PMS1003;14672;50.250;8.312;2022-07-11T01:46:19;19.00;18.00;8.00
27143;PMS1003;14672;50.250;8.312;2022-07-11T01:48:47;17.00;15.75;7.00
27143;PMS1003;14672;50.250;8.312;2022-07-11T01:51:13;14.25;14.25;5.00
27143;PMS1003;14672;50.250;8.312;2022-07-11T01:53:39;19.33;18.33;9.00
27143;PMS1003;14672;50.250;8.312;2022-07-11T01:56:09;22.25;20.25;11.00
27143;PMS1003;14672;50.250;8.312;2022-07-11T01:58:35;21.75;19.50;8.00
27143;PMS1003;14672;50.250;8.312;2022-07-11T02:01:01;18.67;17.00;8.00
27143;PMS1003;14672;50.250;8.312;2022-07-11T02:03:26;21.33;17.67;11.00
27143;PMS1003;14672;50.250;8.312;2022-07-11T02:05:52;16.25;16.00;9.00
27143;PMS1003;14672;50.250;8.312;2022-07-11T02:08:18;21.25;19.00;9.50
27143;PMS1003;14672;50.250;8.312;2022-07-11T02:10:46;17.33;17.00;7.00
27143;PMS1003;14672;50.250;8.312;2022-07-11T02:13:14;16.50;15.00;7.00
27143;PMS1003;14672;50.250;8.312;2022-07-11T02:15:42;15.75;13.50;6.00
27143;PMS1003;14672;50.250;8.312;2022-07-11T02:18:10;18.25;18.25;9.00
27143;PMS1003;14672;50.250;8.312;2022-07-11T02:20:38;16.25;16.00;8.00
27143;PMS1003;14672;50.250;8.312;2022-07-11T02:23:06;21.00;18.50;9.00
27143;PMS1003;14672;50.250;8.312;2022-07-11T02:25:32;21.00;17.25;8.00
27143;PMS1003;14672;50.250;8.312;2022-07-11T02:28:05;15.75;15.75;7.00
27143;PMS1003;14672;50.250;8.312;2022-07-11T02:30:35;18.00;15.75;7.75
27143;PMS1003;14672;50.250;8.312;2022-07-11T02:33:05;18.25;16.50;8.50
27143;PMS1003;14672;50.250;8.312;2022-07-11T02:35:41;17.00;14.33;8.33
27143;PMS1003;14672;50.250;8.312;2022-07-11T02:38:08;18.00;16.75;7.00
27143;PMS1003;14672;50.250;8.312;2022-07-11T02:40:34;17.00;15.00;7.00
27143;PMS1003;14672;50.250;8.312;2022-07-11T02:43:03;21.00;18.67;9.67
27143;PMS1003;14672;50.250;8.312;2022-07-11T02:45:30;20.00;18.25;9.75
27143;PMS1003;14672;50.250;8.312;2022-07-11T02:47:56;19.75;17.25;8.00
27143;PMS1003;14672;50.250;8.312;2022-07-11T02:50:22;16.50;16.50;7.50
27143;PMS1003;14672;50.250;8.312;2022-07-11T02:52:48;21.00;18.67;7.33
27143;PMS1003;14672;50.250;8.312;2022-07-11T02:55:14;19.50;18.75;8.00
27143;PMS1003;14672;50.250;8.312;2022-07-11T02:57:40;19.00;18.75;7.25
27143;PMS1003;14672;50.250;8.312;2022-07-11T03:00:08;21.50;21.50;11.00
27143;PMS1003;14672;50.250;8.312;2022-07-11T03:02:40;17.50;17.50;8.75
27143;PMS1003;14672;50.250;8.312;2022-07-11T03:05:07;21.25;20.25;8.00
27143;PMS1003;14672;50.250;8.312;2022-07-11T03:07:33;28.75;19.75;10.00
27143;PMS1003;14672;50.250;8.312;2022-07-11T03:10:00;19.75;18.50;9.75
27143;PMS1003;14672;50.250;8.312;2022-07-11T03:12:26;19.50;16.25;8.25
27143;PMS1003;14672;50.250;8.312;2022-07-11T03:14:52;19.00;18.25;9.00
27143;PMS1003;14672;50.250;8.312;2022-07-11T03:17:18;19.67;18.33;11.00
27143;PMS1003;14672;50.250;8.312;2022-07-11T03:19:45;14.25;14.00;8.00
27143;PMS1003;14672;50.250;8.312;2022-07-11T03:22:15;17.75;17.75;9.50
27143;PMS1003;14672;50.250;8.312;2022-07-11T03:24:42;16.50;16.50;9.00
27143;PMS1003;14672;50.250;8.312;2022-07-11T03:27:08;16.25;16.25;7.75
27143;PMS1003;14672;50.250;8.312;2022-07-11T03:29:35;23.25;20.75;9.50
27143;PMS1003;14672;50.250;8.312;2022-07-11T03:32:01;16.00;15.00;8.25
27143;PMS1003;14672;50.250;8.312;2022-07-11T03:34:28;19.00;19.00;9.00
27143;PMS1003;14672;50.250;8.312;2022-07-11T03:36:53;16.00;16.00;8.33
27143;PMS1003;14672;50.250;8.312;2022-07-11T03:39:20;20.00;16.33;8.00
27143;PMS1003;14672;50.250;8.312;2022-07-11T03:41:48;14.75;14.75;8.50
27143;PMS1003;14672;50.250;8.312;2022-07-11T03:44:14;16.00;14.67;7.00
27143;PMS1003;14672;50.250;8.312;2022-07-11T03:46:40;17.33;15.67;7.67
27143;PMS1003;14672;50.250;8.312;2022-07-11T03:49:06;15.67;15.67;9.00
27143;PMS1003;14672;50.250;8.312;2022-07-11T03:51:33;18.50;17.00;7.75
27143;PMS1003;14672;50.250;8.312;2022-07-11T03:53:59;16.25;16.25;7.00
27143;PMS1003;14672;50.250;8.312;2022-07-11T03:56:25;17.00;16.00;8.00
27143;PMS1003;14672;50.250;8.312;2022-07-11T03:58:51;21.67;21.00;9.67
27143;PMS1003;14672;50.250;8.312;2022-07-11T04:01:17;17.75;16.75;9.00
27143;PMS1003;14672;50.250;8.312;2022-07-11T04:03:47;14.50;14.50;6.00
27143;PMS1003;14672;50.250;8.312;2022-07-11T04:06:13;15.33;13.33;7.33
27143;PMS1003;14672;50.250;8.312;2022-07-11T04:08:39;18.50;18.25;8.00
27143;PMS1003;14672;50.250;8.312;2022-07-11T04:11:06;17.50;17.50;10.00
27143;PMS1003;14672;50.250;8.312;2022-07-11T04:13:32;19.25;17.75;9.00
27143;PMS1003;14672;50.250;8.312;2022-07-11T04:15:58;16.25;16.25;7.50
27143;PMS1003;14672;50.250;8.312;2022-07-11T04:18:24;19.00;18.33;8.67
27143;PMS1003;14672;50.250;8.312;2022-07-11T04:20:50;17.75;15.75;7.25
27143;PMS1003;14672;50.250;8.312;2022-07-11T04:23:17;17.50;16.25;8.00
27143;PMS1003;14672;50.250;8.312;2022-07-11T04:25:43;19.25;18.50;7.00
27143;PMS1003;14672;50.250;8.312;2022-07-11T04:28:09;16.67;15.67;7.33
27143;PMS1003;14672;50.250;8.312;2022-07-11T04:30:35;19.00;18.00;8.00
27143;PMS1003;14672;50.250;8.312;2022-07-11T04:33:01;16.50;16.50;9.75
27143;PMS1003;14672;50.250;8.312;2022-07-11T04:35:27;18.25;17.00;9.50
27143;PMS1003;14672;50.250;8.312;2022-07-11T04:37:55;16.00;16.00;8.00
27143;PMS1003;14672;50.250;8.312;2022-07-11T04:40:22;24.50;16.75;8.75
27143;PMS1003;14672;50.250;8.312;2022-07-11T04:42:51;14.75;14.75;7.00
27143;PMS1003;14672;50.250;8.312;2022-07-11T04:45:18;16.25;14.50;8.00
27143;PMS1003;14672;50.250;8.312;2022-07-11T04:47:44;16.50;15.75;7.75
27143;PMS1003;14672;50.250;8.312;2022-07-11T04:50:10;14.00;14.00;7.67
27143;PMS1003;14672;50.250;8.312;2022-07-11T04:52:36;17.50;16.00;7.75
27143;PMS1003;14672;50.250;8.312;2022-07-11T04:55:03;16.75;15.75;8.00
27143;PMS1003;14672;50.250;8.312;2022-07-11T04:57:29;15.50;15.50;9.00
27143;PMS1003;14672;50.250;8.312;2022-07-11T04:59:55;17.00;16.33;8.00
27143;PMS1003;14672;50.250;8.312;2022-07-11T05:02:21;16.00;16.00;8.00
27143;PMS1003;14672;50.250;8.312;2022-07-11T05:04:47;18.00;15.00;8.00
27143;PMS1003;14672;50.250;8.312;2022-07-11T05:07:12;14.00;14.00;8.00
27143;PMS1003;14672;50.250;8.312;2022-07-11T05:09:39;17.67;17.67;7.00
27143;PMS1003;14672;50.250;8.312;2022-07-11T05:12:05;19.25;19.25;11.00
27143;PMS1003;14672;50.250;8.312;2022-07-11T05:14:33;16.50;16.50;9.00
27143;PMS1003;14672;50.250;8.312;2022-07-11T05:16:59;16.33;15.00;7.00
27143;PMS1003;14672;50.250;8.312;2022-07-11T05:19:25;16.67;16.67;8.33
27143;PMS1003;14672;50.250;8.312;2022-07-11T05:21:51;20.33;18.00;9.00
27143;PMS1003;14672;50.250;8.312;2022-07-11T05:24:16;17.00;16.33;8.00
27143;PMS1003;14672;50.250;8.312;2022-07-11T05:26:43;15.75;15.75;7.75
27143;PMS1003;14672;50.250;8.312;2022-07-11T05:29:10;18.25;18.25;8.50
27143;PMS1003;14672;50.250;8.312;2022-07-11T05:31:36;17.00;15.00;6.75
27143;PMS1003;14672;50.250;8.312;2022-07-11T05:34:02;17.75;16.50;6.25
27143;PMS1003;14672;50.250;8.312;2022-07-11T05:36:28;17.00;15.67;7.33
27143;PMS1003;14672;50.250;8.312;2022-07-11T05:38:54;20.33;19.33;11.00
27143;PMS1003;14672;50.250;8.312;2022-07-11T05:41:19;15.67;15.67;7.00
27143;PMS1003;14672;50.250;8.312;2022-07-11T05:43:45;17.00;15.67;7.00
27143;PMS1003;14672;50.250;8.312;2022-07-11T05:46:11;17.00;17.00;8.50
27143;PMS1003;14672;50.250;8.312;2022-07-11T05:48:37;20.00;17.00;9.00
27143;PMS1003;14672;50.250;8.312;2022-07-11T05:51:03;17.00;17.00;7.00
27143;PMS1003;14672;50.250;8.312;2022-07-11T05:53:29;16.33;14.67;6.67
27143;PMS1003;14672;50.250;8.312;2022-07-11T05:55:55;17.00;16.33;7.00
27143;PMS1003;14672;50.250;8.312;2022-07-11T05:58:20;19.67;17.67;9.00
27143;PMS1003;14672;50.250;8.312;2022-07-11T06:00:46;17.33;17.33;9.00
27143;PMS1003;14672;50.250;8.312;2022-07-11T06:03:12;16.67;16.33;7.33
27143;PMS1003;14672;50.250;8.312;2022-07-11T06:05:38;20.33;18.00;9.67
27143;PMS1003;14672;50.250;8.312;2022-07-11T06:08:04;18.67;17.33;9.00
27143;PMS1003;14672;50.250;8.312;2022-07-11T06:10:48;20.75;19.00;10.50
27143;PMS1003;14672;50.250;8.312;2022-07-11T06:13:14;21.67;20.00;11.67
27143;PMS1003;14672;50.250;8.312;2022-07-11T06:15:40;15.00;14.00;5.33
27143;PMS1003;14672;50.250;8.312;2022-07-11T06:18:06;18.75;18.00;8.00
27143;PMS1003;14672;50.250;8.312;2022-07-11T06:20:32;19.00;18.50;10.50
27143;PMS1003;14672;50.250;8.312;2022-07-11T06:22:58;15.75;14.50;7.00
27143;PMS1003;14672;50.250;8.312;2022-07-11T06:25:24;21.33;19.33;8.33
27143;PMS1003;14672;50.250;8.312;2022-07-11T06:27:50;19.00;17.00;9.00
27143;PMS1003;14672;50.250;8.312;2022-07-11T06:30:16;19.00;18.25;7.00
27143;PMS1003;14672;50.250;8.312;2022-07-11T06:32:42;19.33;18.67;10.00
27143;PMS1003;14672;50.250;8.312;2022-07-11T06:35:08;21.33;18.33;8.33
27143;PMS1003;14672;50.250;8.312;2022-07-11T06:37:34;18.75;16.50;9.00
27143;PMS1003;14672;50.250;8.312;2022-07-11T06:40:00;14.75;14.75;8.00
27143;PMS1003;14672;50.250;8.312;2022-07-11T06:42:26;22.33;22.33;9.67
27143;PMS1003;14672;50.250;8.312;2022-07-11T06:44:52;19.00;19.00;9.33
27143;PMS1003;14672;50.250;8.312;2022-07-11T06:47:19;19.00;18.50;9.00
27143;PMS1003;14672;50.250;8.312;2022-07-11T06:49:45;13.67;13.67;8.33
27143;PMS1003;14672;50.250;8.312;2022-07-11T06:52:10;20.33;18.00;7.00
27143;PMS1003;14672;50.250;8.312;2022-07-11T06:54:36;15.00;15.00;9.00
27143;PMS1003;14672;50.250;8.312;2022-07-11T06:57:02;14.00;13.33;7.00
27143;PMS1003;14672;50.250;8.312;2022-07-11T06:59:28;18.50;17.50;7.00
27143;PMS1003;14672;50.250;8.312;2022-07-11T07:01:54;19.75;19.75;9.00
27143;PMS1003;14672;50.250;8.312;2022-07-11T07:04:20;16.67;16.33;9.00
27143;PMS1003;14672;50.250;8.312;2022-07-11T07:06:46;22.00;20.00;10.00
27143;PMS1003;14672;50.250;8.312;2022-07-11T07:09:12;16.67;16.00;8.00
27143;PMS1003;14672;50.250;8.312;2022-07-11T07:11:38;19.00;19.00;9.00
27143;PMS1003;14672;50.250;8.312;2022-07-11T07:14:04;15.00;15.00;7.00
27143;PMS1003;14672;50.250;8.312;2022-07-11T07:16:29;18.00;18.00;9.00
27143;PMS1003;14672;50.250;8.312;2022-07-11T07:18:55;22.00;18.00;9.00
27143;PMS1003;14672;50.250;8.312;2022-07-11T07:21:24;17.25;16.25;7.25
27143;PMS1003;14672;50.250;8.312;2022-07-11T07:23:51;19.75;18.50;9.00
27143;PMS1003;14672;50.250;8.312;2022-07-11T07:26:16;18.33;15.67;7.67
27143;PMS1003;14672;50.250;8.312;2022-07-11T07:28:42;13.67;13.00;7.67
27143;PMS1003;14672;50.250;8.312;2022-07-11T07:31:08;21.67;21.00;10.67
27143;PMS1003;14672;50.250;8.312;2022-07-11T07:33:36;17.00;17.00;8.50
27143;PMS1003;14672;50.250;8.312;2022-07-11T07:36:03;19.25;19.00;8.75
27143;PMS1003;14672;50.250;8.312;2022-07-11T07:38:29;18.00;18.00;8.50
27143;PMS1003;14672;50.250;8.312;2022-07-11T07:40:55;18.00;18.00;8.33
27143;PMS1003;14672;50.250;8.312;2022-07-11T07:43:21;16.67;15.67;9.00
27143;PMS1003;14672;50.250;8.312;2022-07-11T07:45:46;12.33;12.33;6.33
27143;PMS1003;14672;50.250;8.312;2022-07-11T07:48:12;16.00;14.50;7.00
27143;PMS1003;14672;50.250;8.312;2022-07-11T07:50:38;18.33;16.00;8.67
27143;PMS1003;14672;50.250;8.312;2022-07-11T07:53:04;17.33;17.00;8.00
27143;PMS1003;14672;50.250;8.312;2022-07-11T07:55:30;15.00;15.00;7.00
27143;PMS1003;14672;50.250;8.312;2022-07-11T07:57:56;17.00;15.75;7.25
27143;PMS1003;14672;50.250;8.312;2022-07-11T08:00:22;16.00;15.25;7.25
27143;PMS1003;14672;50.250;8.312;2022-07-11T08:03:07;16.75;16.50;7.00
27143;PMS1003;14672;50.250;8.312;2022-07-11T08:05:36;15.25;14.00;7.00
27143;PMS1003;14672;50.250;8.312;2022-07-11T08:08:02;18.25;17.75;8.50
27143;PMS1003;14672;50.250;8.312;2022-07-11T08:10:29;16.25;15.25;7.50
27143;PMS1003;14672;50.250;8.312;2022-07-11T08:12:55;15.00;14.50;7.00
27143;PMS1003;14672;50.250;8.312;2022-07-11T08:15:21;15.00;14.00;7.00
27143;PMS1003;14672;50.250;8.312;2022-07-11T08:17:48;16.50;15.25;7.00
27143;PMS1003;14672;50.250;8.312;2022-07-11T08:20:14;19.67;18.00;9.00
27143;PMS1003;14672;50.250;8.312;2022-07-11T08:22:40;13.00;13.00;7.00
27143;PMS1003;14672;50.250;8.312;2022-07-11T08:25:06;16.00;15.33;7.00
27143;PMS1003;14672;50.250;8.312;2022-07-11T08:27:32;16.25;15.00;8.00
27143;PMS1003;14672;50.250;8.312;2022-07-11T08:29:58;15.50;15.50;7.00
27143;PMS1003;14672;50.250;8.312;2022-07-11T08:32:24;15.00;13.00;8.33
27143;PMS1003;14672;50.250;8.312;2022-07-11T08:34:50;17.50;17.00;8.75
27143;PMS1003;14672;50.250;8.312;2022-07-11T08:37:16;20.67;19.00;8.00
27143;PMS1003;14672;50.250;8.312;2022-07-11T08:39:42;14.67;14.67;8.00
27143;PMS1003;14672;50.250;8.312;2022-07-11T08:42:08;16.25;15.00;7.00
27143;PMS1003;14672;50.250;8.312;2022-07-11T08:44:34;13.00;13.00;7.00
27143;PMS1003;14672;50.250;8.312;2022-07-11T08:47:03;16.50;15.50;5.00
27143;PMS1003;14672;50.250;8.312;2022-07-11T08:49:29;16.25;13.50;5.75
27143;PMS1003;14672;50.250;8.312;2022-07-11T08:51:56;16.25;15.25;7.25
27143;PMS1003;14672;50.250;8.312;2022-07-11T08:54:23;14.50;14.00;7.50
27143;PMS1003;14672;50.250;8.312;2022-07-11T08:56:49;14.00;13.75;7.00
27143;PMS1003;14672;50.250;8.312;2022-07-11T08:59:17;12.50;11.50;5.00
27143;PMS1003;14672;50.250;8.312;2022-07-11T09:01:45;13.50;13.50;6.50
27143;PMS1003;14672;50.250;8.312;2022-07-11T09:04:14;14.50;13.75;5.00
27143;PMS1003;14672;50.250;8.312;2022-07-11T09:06:41;14.00;13.50;7.00
27143;PMS1003;14672;50.250;8.312;2022-07-11T09:09:07;18.33;16.00;7.00
27143;PMS1003;14672;50.250;8.312;2022-07-11T09:11:48;18.00;18.00;11.00
27143;PMS1003;14672;50.250;8.312;2022-07-11T09:14:50;14.25;14.25;7.00
27143;PMS1003;14672;50.250;8.312;2022-07-11T09:17:13;16.75;15.75;8.00
27143;PMS1003;14672;50.250;8.312;2022-07-11T09:19:39;14.25;13.50;6.75
27143;PMS1003;14672;50.250;8.312;2022-07-11T09:22:07;15.50;15.50;7.50
27143;PMS1003;14672;50.250;8.312;2022-07-11T09:24:56;14.00;14.00;6.75
27143;PMS1003;14672;50.250;8.312;2022-07-11T09:27:50;11.25;11.25;5.50
27143;PMS1003;14672;50.250;8.312;2022-07-11T09:30:38;13.75;13.50;7.00
27143;PMS1003;14672;50.250;8.312;2022-07-11T09:33:09;12.50;12.00;7.00
27143;PMS1003;14672;50.250;8.312;2022-07-11T09:35:41;15.00;14.25;5.00
27143;PMS1003;14672;50.250;8.312;2022-07-11T09:38:11;13.50;13.00;7.00
27143;PMS1003;14672;50.250;8.312;2022-07-11T09:40:44;15.00;15.00;11.00
27143;PMS1003;14672;50.250;8.312;2022-07-11T09:43:12;19.50;16.75;9.50
27143;PMS1003;14672;50.250;8.312;2022-07-11T09:45:39;13.00;11.50;5.00
27143;PMS1003;14672;50.250;8.312;2022-07-11T09:48:10;12.75;12.00;5.00
27143;PMS1003;14672;50.250;8.312;2022-07-11T09:50:38;13.25;13.25;5.25
27143;PMS1003;14672;50.250;8.312;2022-07-11T09:55:41;14.25;13.25;7.00
27143;PMS1003;14672;50.250;8.312;2022-07-11T09:58:15;8.75;8.75;4.00
27143;PMS1003;14672;50.250;8.312;2022-07-11T10:00:42;14.00;14.00;5.50
27143;PMS1003;14672;50.250;8.312;2022-07-11T10:03:10;12.00;11.75;6.25
27143;PMS1003;14672;50.250;8.312;2022-07-11T10:05:37;12.25;12.25;4.75
27143;PMS1003;14672;50.250;8.312;2022-07-11T10:08:04;11.50;11.50;5.50
27143;PMS1003;14672;50.250;8.312;2022-07-11T10:10:31;11.25;11.25;5.75
27143;PMS1003;14672;50.250;8.312;2022-07-11T10:12:58;12.50;12.50;6.00
27143;PMS1003;14672;50.250;8.312;2022-07-11T10:15:29;12.50;12.50;5.00
27143;PMS1003;14672;50.250;8.312;2022-07-11T10:21:12;13.00;13.00;5.00
27143;PMS1003;14672;50.250;8.312;2022-07-11T10:23:28;14.00;12.75;7.25
27143;PMS1003;14672;50.250;8.312;2022-07-11T10:29:23;12.75;12.75;7.50
27143;PMS1003;14672;50.250;8.312;2022-07-11T10:32:05;9.50;9.25;5.00
27143;PMS1003;14672;50.250;8.312;2022-07-11T10:34:32;14.00;12.75;6.00
27143;PMS1003;14672;50.250;8.312;2022-07-11T10:37:00;14.00;14.00;7.00
27143;PMS1003;14672;50.250;8.312;2022-07-11T10:39:28;12.50;12.50;5.75
27143;PMS1003;14672;50.250;8.312;2022-07-11T10:41:55;9.75;9.75;4.00
27143;PMS1003;14672;50.250;8.312;2022-07-11T10:44:28;11.50;11.50;7.75
27143;PMS1003;14672;50.250;8.312;2022-07-11T10:50:08;12.75;11.25;5.25
27143;PMS1003;14672;50.250;8.312;2022-07-11T10:52:42;11.50;11.50;5.75
27143;PMS1003;14672;50.250;8.312;2022-07-11T11:03:42;13.00;12.00;5.00
27143;PMS1003;14672;50.250;8.312;2022-07-11T11:06:09;9.00;8.75;3.75
27143;PMS1003;14672;50.250;8.312;2022-07-11T11:08:42;12.00;12.00;4.50
27143;PMS1003;14672;50.250;8.312;2022-07-11T11:14:16;12.00;11.25;5.00
27143;PMS1003;14672;50.250;8.312;2022-07-11T11:16:51;12.25;10.75;5.00
27143;PMS1003;14672;50.250;8.312;2022-07-11T11:22:20;8.75;8.75;5.00
27143;PMS1003;14672;50.250;8.312;2022-07-11T11:24:50;11.00;11.00;3.50
27143;PMS1003;14672;50.250;8.312;2022-07-11T11:27:22;11.75;11.25;5.50
27143;PMS1003;14672;50.250;8.312;2022-07-11T11:29:50;12.00;11.25;5.00
27143;PMS1003;14672;50.250;8.312;2022-07-11T11:32:19;11.50;11.50;5.00
27143;PMS1003;14672;50.250;8.312;2022-07-11T11:34:47;10.25;9.75;4.75
27143;PMS1003;14672;50.250;8.312;2022-07-11T11:37:17;10.25;10.00;5.00
27143;PMS1003;14672;50.250;8.312;2022-07-11T11:39:43;9.00;9.00;4.25
27143;PMS1003;14672;50.250;8.312;2022-07-11T11:42:10;11.50;11.00;5.50
27143;PMS1003;14672;50.250;8.312;2022-07-11T11:44:50;16.25;15.00;10.75
27143;PMS1003;14672;50.250;8.312;2022-07-11T11:47:21;12.25;12.25;5.25
27143;PMS1003;14672;50.250;8.312;2022-07-11T11:49:49;10.25;10.25;6.00
27143;PMS1003;14672;50.250;8.312;2022-07-11T11:52:15;13.50;13.50;7.00
27143;PMS1003;14672;50.250;8.312;2022-07-11T11:54:43;11.75;11.00;4.50
27143;PMS1003;14672;50.250;8.312;2022-07-11T11:57:15;9.00;9.00;5.75
27143;PMS1003;14672;50.250;8.312;2022-07-11T11:59:41;12.00;12.00;6.00
27143;PMS1003;14672;50.250;8.312;2022-07-11T12:02:08;12.50;12.25;6.00
27143;PMS1003;14672;50.250;8.312;2022-07-11T12:04:35;10.75;10.75;5.25
27143;PMS1003;14672;50.250;8.312;2022-07-11T12:07:01;12.00;12.00;6.75
27143;PMS1003;14672;50.250;8.312;2022-07-11T12:09:29;9.25;9.25;5.00
27143;PMS1003;14672;50.250;8.312;2022-07-11T12:12:20;10.00;10.00;5.25
27143;PMS1003;14672;50.250;8.312;2022-07-11T12:15:21;10.25;10.00;3.75
27143;PMS1003;14672;50.250;8.312;2022-07-11T12:17:51;11.50;9.50;4.00
27143;PMS1003;14672;50.250;8.312;2022-07-11T12:20:40;16.50;15.50;10.25
27143;PMS1003;14672;50.250;8.312;2022-07-11T12:23:09;16.00;14.50;7.75
27143;PMS1003;14672;50.250;8.312;2022-07-11T12:25:38;13.75;13.25;6.75
27143;PMS1003;14672;50.250;8.312;2022-07-11T12:28:05;13.50;11.25;5.50
27143;PMS1003;14672;50.250;8.312;2022-07-11T12:30:33;10.00;10.00;4.25
27143;PMS1003;14672;50.250;8.312;2022-07-11T12:33:03;16.00;13.00;6.00
27143;PMS1003;14672;50.250;8.312;2022-07-11T12:35:34;10.00;10.00;5.25
27143;PMS1003;14672;50.250;8.312;2022-07-11T12:38:01;13.25;13.00;7.00
27143;PMS1003;14672;50.250;8.312;2022-07-11T12:40:28;11.50;11.50;6.00
27143;PMS1003;14672;50.250;8.312;2022-07-11T12:42:54;13.67;13.67;6.00
27143;PMS1003;14672;50.250;8.312;2022-07-11T12:45:20;9.75;9.75;3.50
27143;PMS1003;14672;50.250;8.312;2022-07-11T12:47:46;10.00;10.00;5.25
27143;PMS1003;14672;50.250;8.312;2022-07-11T12:50:15;11.00;10.75;5.50
27143;PMS1003;14672;50.250;8.312;2022-07-11T12:52:53;12.00;11.25;4.25
27143;PMS1003;14672;50.250;8.312;2022-07-11T13:00:38;11.00;11.00;6.00
27143;PMS1003;14672;50.250;8.312;2022-07-11T13:03:32;12.00;11.50;5.00
27143;PMS1003;14672;50.250;8.312;2022-07-11T13:06:01;14.75;14.75;7.75
27143;PMS1003;14672;50.250;8.312;2022-07-11T13:08:35;9.75;9.75;4.50
27143;PMS1003;14672;50.250;8.312;2022-07-11T13:11:18;10.00;10.00;5.50
27143;PMS1003;14672;50.250;8.312;2022-07-11T13:13:49;11.00;10.25;4.75
27143;PMS1003;14672;50.250;8.312;2022-07-11T13:16:17;9.00;9.00;5.25
27143;PMS1003;14672;50.250;8.312;2022-07-11T13:18:44;13.00;11.75;6.50
27143;PMS1003;14672;50.250;8.312;2022-07-11T13:21:11;12.50;10.75;5.75
27143;PMS1003;14672;50.250;8.312;2022-07-11T13:23:37;11.00;11.00;5.75
27143;PMS1003;14672;50.250;8.312;2022-07-11T13:26:05;9.50;9.50;5.25
27143;PMS1003;14672;50.250;8.312;2022-07-11T13:28:32;11.00;11.00;5.50
27143;PMS1003;14672;50.250;8.312;2022-07-11T13:30:58;11.25;11.25;4.50
27143;PMS1003;14672;50.250;8.312;2022-07-11T13:33:24;8.50;8.50;5.00
27143;PMS1003;14672;50.250;8.312;2022-07-11T13:35:51;11.25;11.25;5.00
27143;PMS1003;14672;50.250;8.312;2022-07-11T13:38:18;9.25;8.75;5.00
27143;PMS1003;14672;50.250;8.312;2022-07-11T13:40:45;9.50;9.50;4.75
27143;PMS1003;14672;50.250;8.312;2022-07-11T13:43:11;10.00;9.25;5.00
27143;PMS1003;14672;50.250;8.312;2022-07-11T13:45:38;7.75;7.75;3.00
27143;PMS1003;14672;50.250;8.312;2022-07-11T13:48:05;9.00;9.00;3.00
27143;PMS1003;14672;50.250;8.312;2022-07-11T13:50:32;9.25;8.75;3.00
27143;PMS1003;14672;50.250;8.312;2022-07-11T13:52:58;10.50;9.50;3.25
27143;PMS1003;14672;50.250;8.312;2022-07-11T13:55:24;7.00;7.00;3.00
27143;PMS1003;14672;50.250;8.312;2022-07-11T13:57:54;7.00;7.00;2.00
27143;PMS1003;14672;50.250;8.312;2022-07-11T14:00:22;8.00;7.50;2.00
27143;PMS1003;14672;50.250;8.312;2022-07-11T14:02:48;10.25;9.50;4.00
27143;PMS1003;14672;50.250;8.312;2022-07-11T14:05:16;7.25;7.25;3.00
27143;PMS1003;14672;50.250;8.312;2022-07-11T14:07:43;8.00;8.00;3.00
27143;PMS1003;14672;50.250;8.312;2022-07-11T14:10:13;11.00;10.00;5.00
27143;PMS1003;14672;50.250;8.312;2022-07-11T14:12:39;10.00;10.00;5.00
27143;PMS1003;14672;50.250;8.312;2022-07-11T14:15:06;8.75;8.75;3.50
27143;PMS1003;14672;50.250;8.312;2022-07-11T14:17:33;7.50;7.50;3.00
27143;PMS1003;14672;50.250;8.312;2022-07-11T14:20:00;9.75;9.25;3.00
27143;PMS1003;14672;50.250;8.312;2022-07-11T14:22:26;8.33;8.33;3.67
27143;PMS1003;14672;50.250;8.312;2022-07-11T14:24:52;10.33;10.33;5.67
27143;PMS1003;14672;50.250;8.312;2022-07-11T14:27:18;11.50;10.75;5.75
27143;PMS1003;14672;50.250;8.312;2022-07-11T14:29:46;10.75;10.00;3.00
27143;PMS1003;14672;50.250;8.312;2022-07-11T14:32:13;10.00;10.00;5.00
27143;PMS1003;14672;50.250;8.312;2022-07-11T14:34:39;9.00;9.00;4.00
27143;PMS1003;14672;50.250;8.312;2022-07-11T14:37:05;8.67;8.67;3.67